Time;durP1;ratioP1;P1;durP2;ratioP2;P2;SDS_P1;SDS_P2;PMS_P1;PMS_P2;Temp;Humidity;BMP_temperature;BMP_pressure;BME280_temperature;BME280_humidity;BME280_pressure;Samples;Min_cycle;Max_cycle;Signal;HPM_P1;HPM_P2
2022/08/25 00:00:59;;;;;;;0.00;0.00;;;;;;;19.17;71.50;100778.56;4993022;28;20681;-73
2022/08/25 00:03:24;;;;;;;0.00;0.00;;;;;;;19.01;71.87;100781.38;4992788;28;20169;-72
2022/08/25 00:05:50;;;;;;;0.00;0.00;;;;;;;19.19;71.57;100782.56;4993202;28;20175;-73
2022/08/25 00:08:15;;;;;;;0.00;0.00;;;;;;;19.30;71.27;100777.28;4992804;28;20169;-73
2022/08/25 00:10:41;;;;;;;0.00;0.00;;;;;;;19.31;71.19;100778.88;4992780;28;20176;-72
2022/08/25 00:13:07;;;;;;;0.00;0.00;;;;;;;19.20;71.53;100781.41;4993181;28;20225;-73
2022/08/25 00:15:33;;;;;;;0.00;0.00;;;;;;;19.05;72.27;100778.69;4992522;28;20199;-73
2022/08/25 00:17:59;;;;;;;0.00;0.00;;;;;;;18.97;72.35;100781.28;4992602;28;20688;-73
2022/08/25 00:20:26;;;;;;;0.00;0.00;;;;;;;18.94;72.79;100779.22;4992651;28;20593;-73
2022/08/25 00:22:52;;;;;;;0.00;0.00;;;;;;;18.81;72.85;100777.75;4992755;28;20171;-73
2022/08/25 00:25:17;;;;;;;0.00;0.00;;;;;;;18.94;73.07;100779.22;4992401;28;20533;-73
2022/08/25 00:27:44;;;;;;;0.00;0.00;;;;;;;18.87;73.10;100776.31;4992513;28;20225;-73
2022/08/25 00:30:10;;;;;;;0.00;0.00;;;;;;;18.72;73.71;100780.69;4992513;28;20181;-73
2022/08/25 00:32:36;;;;;;;0.00;0.00;;;;;;;18.85;73.66;100777.81;4992253;28;20237;-73
2022/08/25 00:35:02;;;;;;;0.00;0.00;;;;;;;19.05;73.35;100785.00;4992251;28;20224;-73
2022/08/25 00:37:28;;;;;;;0.00;0.00;;;;;;;19.01;73.09;100781.38;4992440;28;20218;-73
2022/08/25 00:39:55;;;;;;;0.00;0.00;;;;;;;18.98;73.20;100776.56;4992269;28;20378;-73
2022/08/25 00:42:21;;;;;;;0.00;0.00;;;;;;;18.85;73.84;100777.81;4990895;28;20237;-73
2022/08/25 00:44:47;;;;;;;0.00;0.00;;;;;;;18.73;73.95;100781.50;4990726;28;20536;-73
2022/08/25 00:47:12;;;;;;;0.00;0.00;;;;;;;18.75;74.21;100779.16;4992020;28;20183;-74
2022/08/25 00:49:45;;;;;;;0.00;0.00;;;;;;;18.86;73.95;100782.19;4992156;28;20680;-73
2022/08/25 00:52:19;;;;;;;0.00;0.00;;;;;;;18.94;73.91;100773.69;4992280;28;20280;-73
2022/08/25 00:55:07;;;;;;;0.00;0.00;;;;;;;18.97;73.66;100775.75;4991721;28;20685;-73
2022/08/25 00:57:36;;;;;;;0.00;0.00;;;;;;;19.00;73.75;100774.22;4991756;28;20193;-73
2022/08/25 01:00:11;;;;;;;0.00;0.00;;;;;;;19.08;73.57;100781.53;4990984;28;20174;-73
2022/08/25 01:02:37;;;;;;;0.00;0.00;;;;;;;19.07;73.57;100770.81;4992054;28;20198;-73
2022/08/25 01:05:03;;;;;;;0.00;0.00;;;;;;;18.93;73.92;100774.03;4991640;28;20504;-73
2022/08/25 01:07:28;;;;;;;0.00;0.00;;;;;;;18.83;74.49;100788.47;4991823;28;20185;-73
2022/08/25 01:09:54;;;;;;;0.00;0.00;;;;;;;18.76;74.57;100779.97;4991612;28;20188;-73
2022/08/25 01:12:20;;;;;;;0.00;0.00;;;;;;;18.27;76.65;100777.53;4990397;28;20188;-73
2022/08/25 01:14:47;;;;;;;0.00;0.00;;;;;;;18.08;77.87;100781.78;4990217;28;20177;-73
2022/08/25 01:17:13;;;;;;;0.00;0.00;;;;;;;18.01;78.51;100781.56;4991671;28;20209;-73
2022/08/25 01:19:39;;;;;;;0.00;0.00;;;;;;;18.11;78.57;100781.06;4992067;28;20641;-74
2022/08/25 01:22:04;;;;;;;0.00;0.00;;;;;;;18.25;77.75;100777.09;4991566;28;20180;-73
2022/08/25 01:24:37;;;;;;;0.00;0.00;;;;;;;18.28;77.76;100782.69;4991252;28;20687;-73
2022/08/25 01:27:03;;;;;;;0.40;0.40;;;;;;;18.46;77.15;100771.28;4991522;28;20657;-73
2022/08/25 01:29:30;;;;;;;0.00;0.00;;;;;;;18.50;76.59;100784.03;4991556;28;20181;-73
2022/08/25 01:31:58;;;;;;;0.00;0.00;;;;;;;18.44;76.70;100782.72;4991259;28;20181;-74
2022/08/25 01:34:27;;;;;;;0.00;0.00;;;;;;;18.48;76.43;100780.03;4991127;28;20177;-73
2022/08/25 01:36:53;;;;;;;0.00;0.00;;;;;;;18.32;76.88;100777.25;4991350;28;20217;-74
2022/08/25 01:39:19;;;;;;;0.00;0.00;;;;;;;18.38;76.94;100775.84;4991211;28;20194;-74
2022/08/25 01:42:10;;;;;;;0.00;0.00;;;;;;;18.31;77.41;100776.44;4991180;28;20176;-73
2022/08/25 01:44:39;;;;;;;0.00;0.00;;;;;;;18.01;78.69;100783.53;4991152;28;20192;-73
2022/08/25 01:47:06;;;;;;;2.30;2.20;;;;;;;17.94;78.95;100786.09;4991288;28;20189;-73
2022/08/25 01:49:32;;;;;;;0.00;0.00;;;;;;;17.82;79.52;100781.44;4991479;28;20553;-73
2022/08/25 01:52:13;;;;;;;0.00;0.00;;;;;;;17.71;80.10;100783.91;4991047;28;20174;-74
2022/08/25 01:54:38;;;;;;;0.00;0.00;;;;;;;17.61;80.38;100781.59;4990714;28;20653;-73
2022/08/25 01:57:04;;;;;;;0.00;0.00;;;;;;;17.41;80.91;100783.38;4991379;28;20287;-73
2022/08/25 01:59:29;;;;;;;0.00;0.00;;;;;;;17.27;81.61;100779.38;4990735;28;20172;-73
2022/08/25 02:01:54;;;;;;;0.00;0.00;;;;;;;17.34;82.20;100783.16;4991042;28;20191;-73
2022/08/25 02:04:20;;;;;;;0.00;0.00;;;;;;;17.51;81.55;100782.09;4990780;28;20260;-73
2022/08/25 02:06:46;;;;;;;0.00;0.00;;;;;;;17.47;81.26;100781.97;4991018;28;20197;-74
2022/08/25 02:09:16;;;;;;;0.00;0.00;;;;;;;17.42;82.04;100778.66;4990558;28;20204;-73
2022/08/25 02:11:45;;;;;;;0.00;0.00;;;;;;;17.49;82.05;100778.84;4992379;28;20713;-73
2022/08/25 02:14:14;;;;;;;0.00;0.00;;;;;;;17.51;81.57;100782.91;4994785;28;20231;-73
2022/08/25 02:16:43;;;;;;;0.00;0.00;;;;;;;17.56;81.65;100781.84;4974897;28;20252;-73
2022/08/25 02:19:10;;;;;;;0.00;0.00;;;;;;;17.53;82.00;100779.78;4975163;28;20186;-73
2022/08/25 02:21:36;;;;;;;0.00;0.00;;;;;;;17.52;82.58;100778.19;4975313;28;20181;-74
2022/08/25 02:24:03;;;;;;;0.00;0.00;;;;;;;17.59;82.65;100781.13;4974724;28;20218;-74
2022/08/25 02:26:29;;;;;;;0.00;0.00;;;;;;;17.50;83.37;100780.47;4974068;28;20264;-74
2022/08/25 02:28:54;;;;;;;0.00;0.00;;;;;;;17.64;83.38;100780.88;4975387;28;20182;-74
2022/08/25 02:31:23;;;;;;;0.00;0.00;;;;;;;17.63;83.24;100773.75;4975142;28;20513;-74
2022/08/25 02:33:49;;;;;;;0.00;0.00;;;;;;;17.65;83.08;100777.00;4974838;28;20190;-75
2022/08/25 02:36:15;;;;;;;0.00;0.00;;;;;;;17.75;82.67;100782.03;4973727;28;20201;-74
2022/08/25 02:38:41;;;;;;;1.80;1.80;;;;;;;17.66;82.58;100781.34;4975063;28;20641;-74
2022/08/25 02:41:16;;;;;;;0.00;0.00;;;;;;;17.68;82.85;100781.84;4975213;28;20657;-74
2022/08/25 02:43:43;;;;;;;0.00;0.00;;;;;;;17.67;83.33;100782.16;4974876;28;20641;-74
2022/08/25 02:46:10;;;;;;;0.00;0.00;;;;;;;17.70;83.12;100782.28;4974937;28;20216;-74
2022/08/25 02:48:36;;;;;;;0.07;0.07;;;;;;;17.70;83.06;100778.72;4975333;28;20182;-74
2022/08/25 02:51:03;;;;;;;0.00;0.00;;;;;;;17.64;83.56;100780.88;4973817;28;20516;-74
2022/08/25 02:53:29;;;;;;;0.00;0.00;;;;;;;17.61;83.70;100778.81;4974923;28;20182;-74
2022/08/25 02:55:55;;;;;;;0.00;0.00;;;;;;;17.58;83.85;100778.72;4974766;28;20245;-74
2022/08/25 02:58:21;;;;;;;0.00;0.00;;;;;;;17.59;83.88;100783.91;4974929;28;20177;-75
2022/08/25 03:00:47;;;;;;;0.00;0.00;;;;;;;17.33;85.17;100770.50;4974423;28;20193;-74
2022/08/25 03:03:13;;;;;;;0.20;0.20;;;;;;;17.27;85.60;100774.66;4974527;28;20208;-74
2022/08/25 03:05:38;;;;;;;0.00;0.00;;;;;;;17.25;85.83;100769.50;4974396;28;20229;-74
2022/08/25 03:08:05;;;;;;;0.00;0.00;;;;;;;17.31;86.05;100774.78;4975120;28;20178;-75
2022/08/25 03:10:31;;;;;;;0.00;0.00;;;;;;;17.29;85.76;100764.06;4974434;28;20166;-75
2022/08/25 03:12:56;;;;;;;0.00;0.00;;;;;;;17.06;86.30;100766.53;4974517;28;20532;-74
2022/08/25 03:15:24;;;;;;;0.00;0.00;;;;;;;17.09;86.89;100767.81;4974166;28;20244;-72
2022/08/25 03:17:50;;;;;;;0.00;0.00;;;;;;;17.03;87.27;100760.91;4974435;28;20246;-73
2022/08/25 03:20:17;;;;;;;0.00;0.00;;;;;;;16.98;87.67;100769.41;4974549;28;20174;-73
2022/08/25 03:22:42;;;;;;;0.00;0.00;;;;;;;16.99;87.83;100771.84;4973538;28;20657;-73
2022/08/25 03:27:52;;;;;;;0.00;0.00;;;;;;;17.14;87.15;100764.78;4974575;28;20289;-73
2022/08/25 03:30:18;;;;;;;0.00;0.00;;;;;;;17.09;87.13;100765.84;4974195;28;20273;-72
2022/08/25 03:32:44;;;;;;;0.00;0.00;;;;;;;17.08;86.91;100767.00;4974085;28;20175;-73
2022/08/25 03:35:10;;;;;;;0.00;0.00;;;;;;;17.18;86.78;100777.56;4973686;28;20595;-73
2022/08/25 03:37:36;;;;;;;0.00;0.00;;;;;;;17.21;86.58;100774.13;4974163;28;20178;-73
2022/08/25 03:40:04;;;;;;;0.00;0.00;;;;;;;17.21;86.88;100774.13;4973876;28;20638;-72
2022/08/25 03:42:29;;;;;;;0.00;0.00;;;;;;;17.28;85.61;100773.50;4974057;28;20182;-73
2022/08/25 03:44:55;;;;;;;0.13;0.13;;;;;;;17.25;85.74;100783.31;4972396;28;20201;-72
2022/08/25 03:47:20;;;;;;;0.20;0.20;;;;;;;17.15;85.54;100780.22;4973593;28;20217;-72
2022/08/25 03:49:46;;;;;;;0.00;0.00;;;;;;;17.07;86.38;100772.84;4973781;28;20228;-73
2022/08/25 03:52:11;;;;;;;0.00;0.00;;;;;;;17.03;87.18;100775.50;4974006;28;20539;-73
2022/08/25 03:54:37;;;;;;;0.00;0.00;;;;;;;17.04;87.99;100765.25;4973392;28;20245;-73
2022/08/25 03:57:02;;;;;;;0.00;0.00;;;;;;;17.02;87.99;100771.13;4973751;28;20705;-73
2022/08/25 03:59:28;;;;;;;0.50;0.50;;;;;;;17.05;88.42;100775.16;4973640;28;20185;-73
2022/08/25 04:01:53;;;;;;;0.00;0.00;;;;;;;17.10;87.97;100772.16;4973582;28;20608;-73
2022/08/25 04:04:19;;;;;;;0.00;0.00;;;;;;;17.13;87.69;100777.78;4973265;28;20185;-73
2022/08/25 04:06:45;;;;;;;0.00;0.00;;;;;;;17.11;86.93;100782.88;4973647;28;20177;-72
2022/08/25 04:09:11;;;;;;;0.00;0.00;;;;;;;17.08;86.92;100783.56;4973595;28;20215;-72
2022/08/25 04:11:36;;;;;;;0.00;0.00;;;;;;;17.03;86.73;100792.06;4972074;28;20220;-72
2022/08/25 04:14:03;;;;;;;0.00;0.00;;;;;;;16.91;87.31;100792.06;4973112;28;20177;-72
2022/08/25 04:16:31;;;;;;;0.00;0.00;;;;;;;16.83;87.82;100795.75;4973406;28;20276;-72
2022/08/25 04:18:58;;;;;;;0.00;0.00;;;;;;;16.69;89.15;100801.63;4973282;28;20185;-72
2022/08/25 04:21:25;;;;;;;0.00;0.00;;;;;;;16.64;90.16;100799.88;4973320;28;20649;-72
2022/08/25 04:23:52;;;;;;;0.00;0.00;;;;;;;16.62;91.51;100793.88;4972916;28;20212;-72
2022/08/25 04:26:20;;;;;;;0.00;0.00;;;;;;;16.65;92.53;100790.44;4973261;28;20178;-73
2022/08/25 04:28:46;;;;;;;0.00;0.00;;;;;;;16.70;92.83;100785.88;4971952;28;20178;-73
2022/08/25 04:31:16;;;;;;;0.00;0.00;;;;;;;16.72;92.87;100789.09;4972983;28;20178;-73
2022/08/25 04:33:41;;;;;;;0.00;0.00;;;;;;;16.76;92.56;100790.81;4972757;28;20626;-73
2022/08/25 04:36:10;;;;;;;0.00;0.00;;;;;;;16.64;91.73;100785.28;4972860;28;20201;-72
2022/08/25 04:38:36;;;;;;;0.00;0.00;;;;;;;16.58;92.31;100787.44;4973066;28;20566;-72
2022/08/25 04:41:03;;;;;;;0.00;0.00;;;;;;;16.48;92.73;100784.31;4972870;28;20581;-73
2022/08/25 04:43:30;;;;;;;0.00;0.00;;;;;;;16.49;92.81;100781.22;4972594;28;20189;-73
2022/08/25 04:45:56;;;;;;;0.00;0.00;;;;;;;16.58;92.80;100776.41;4971808;28;20174;-72
2022/08/25 04:48:21;;;;;;;0.00;0.00;;;;;;;16.57;92.50;100777.53;4973090;28;20193;-72
2022/08/25 04:50:47;;;;;;;0.00;0.00;;;;;;;16.66;92.74;100778.25;4972875;28;20261;-72
2022/08/25 04:53:13;;;;;;;0.00;0.00;;;;;;;16.51;92.93;100767.91;4972815;28;20177;-72
2022/08/25 04:55:44;;;;;;;0.00;0.00;;;;;;;16.41;94.09;100771.09;4972615;28;20210;-72
2022/08/25 04:58:09;;;;;;;0.00;0.00;;;;;;;16.45;94.79;100768.44;4973094;28;20618;-72
2022/08/25 05:00:35;;;;;;;0.00;0.00;;;;;;;16.40;95.59;100772.25;4972939;28;20225;-72
2022/08/25 05:03:01;;;;;;;0.00;0.00;;;;;;;16.44;95.95;100777.88;4973138;28;20257;-72
2022/08/25 05:05:27;;;;;;;0.00;0.00;;;;;;;16.52;95.46;100776.97;4972688;28;20181;-72
2022/08/25 05:07:53;;;;;;;0.00;0.00;;;;;;;16.48;96.02;100776.03;4972569;28;20182;-72
2022/08/25 05:10:19;;;;;;;0.00;0.00;;;;;;;16.53;96.14;100779.38;4972459;28;20180;-72
2022/08/25 05:12:44;;;;;;;0.00;0.00;;;;;;;16.60;95.89;100779.63;4972332;28;20173;-72
2022/08/25 05:17:53;;;;;;;0.00;0.00;;;;;;;16.68;95.77;100780.69;4972483;28;20185;-72
2022/08/25 05:20:19;;;;;;;0.40;0.40;;;;;;;16.76;96.05;100790.81;4972278;28;20171;-72
2022/08/25 05:22:45;;;;;;;0.00;0.00;;;;;;;16.79;95.84;100784.63;4972198;28;20210;-73
2022/08/25 05:25:11;;;;;;;0.20;0.20;;;;;;;16.89;95.64;100789.66;4971993;28;20170;-72
2022/08/25 05:27:36;;;;;;;0.00;0.00;;;;;;;16.87;95.39;100789.19;4966922;28;20420;-72
2022/08/25 05:30:02;;;;;;;0.00;0.00;;;;;;;16.94;95.69;100791.41;4965765;28;20231;-72
2022/08/25 05:32:28;;;;;;;0.37;0.37;;;;;;;16.90;95.98;100791.25;4971909;28;20185;-72
2022/08/25 05:34:53;;;;;;;0.00;0.00;;;;;;;16.86;96.22;100795.06;4967534;28;20182;-72
2022/08/25 05:37:18;;;;;;;0.00;0.00;;;;;;;16.95;96.31;100787.50;4971507;28;20292;-71
2022/08/25 05:39:43;;;;;;;0.40;0.40;;;;;;;17.03;95.93;100785.75;4972021;28;20265;-71
2022/08/25 05:42:09;;;;;;;0.87;0.30;;;;;;;17.08;96.04;100791.84;4971731;28;20174;-71
2022/08/25 05:44:34;;;;;;;0.00;0.00;;;;;;;17.13;96.12;100788.03;4971621;28;20224;-71
2022/08/25 05:46:59;;;;;;;0.00;0.00;;;;;;;17.27;96.02;100788.47;4971399;28;20178;-71
2022/08/25 05:49:25;;;;;;;0.07;0.07;;;;;;;17.38;95.39;100783.28;4971361;28;20174;-71
2022/08/25 05:51:50;;;;;;;0.00;0.00;;;;;;;17.43;95.05;100780.28;4971604;28;20516;-71
2022/08/25 05:54:16;;;;;;;0.10;0.10;;;;;;;17.40;95.76;100780.97;4971282;28;20204;-71
2022/08/25 05:56:41;;;;;;;0.00;0.00;;;;;;;17.40;95.61;100787.31;4971574;28;20212;-71
2022/08/25 05:59:06;;;;;;;0.00;0.00;;;;;;;17.56;95.60;100784.59;4971793;28;20177;-71
2022/08/25 06:04:16;;;;;;;0.23;0.23;;;;;;;17.68;94.81;100781.00;4971549;28;20209;-71
2022/08/25 06:06:42;;;;;;;0.00;0.00;;;;;;;17.75;94.23;100789.53;4968213;28;20678;-71
2022/08/25 06:09:09;;;;;;;0.10;0.10;;;;;;;17.78;94.47;100786.03;4976531;28;20182;-71
2022/08/25 06:11:36;;;;;;;0.63;0.63;;;;;;;17.83;94.69;100780.28;4971743;28;20192;-71
2022/08/25 06:14:03;;;;;;;0.43;0.43;;;;;;;17.88;94.48;100781.97;4971775;28;20831;-72
2022/08/25 06:16:28;;;;;;;0.57;0.57;;;;;;;18.01;94.22;100786.31;4971659;28;20197;-74
2022/08/25 06:18:54;;;;;;;0.30;0.30;;;;;;;18.11;93.41;100783.03;4971708;28;20178;-73
2022/08/25 06:21:19;;;;;;;0.30;0.30;;;;;;;18.14;93.17;100785.09;4971830;28;20200;-73
2022/08/25 06:23:45;;;;;;;0.00;0.00;;;;;;;18.18;93.12;100776.88;4971733;28;20174;-72
2022/08/25 06:26:11;;;;;;;0.00;0.00;;;;;;;18.24;93.26;100775.47;4971874;28;20182;-73
2022/08/25 06:28:36;;;;;;;0.13;0.13;;;;;;;18.37;93.09;100779.75;4973462;28;20269;-73
2022/08/25 06:31:02;;;;;;;0.00;0.00;;;;;;;18.50;92.37;100788.78;4991017;28;20264;-73
2022/08/25 06:33:28;;;;;;;0.10;0.10;;;;;;;18.56;91.61;100787.38;4989701;28;20177;-73
2022/08/25 06:35:55;;;;;;;0.20;0.20;;;;;;;18.62;90.87;100783.16;4991018;28;20209;-72
2022/08/25 06:38:20;;;;;;;0.10;0.10;;;;;;;18.78;90.99;100781.22;4991080;28;20232;-74
2022/08/25 06:40:47;;;;;;;0.00;0.00;;;;;;;18.94;90.24;100783.97;4991044;28;20208;-72
2022/08/25 06:43:13;;;;;;;11.43;3.30;;;;;;;19.00;89.05;100775.03;4971867;28;20523;-73
2022/08/25 06:45:38;;;;;;;0.00;0.00;;;;;;;19.07;88.10;100779.91;4971456;28;20190;-73
2022/08/25 06:48:04;;;;;;;0.10;0.10;;;;;;;19.15;87.98;100783.66;4971747;28;20276;-73
2022/08/25 06:50:29;;;;;;;1.87;1.70;;;;;;;19.23;87.57;100788.19;4971347;28;20190;-72
2022/08/25 06:52:54;;;;;;;0.00;0.00;;;;;;;19.35;87.93;100776.97;4970199;28;20221;-73
2022/08/25 06:55:20;;;;;;;0.30;0.30;;;;;;;19.38;86.49;100775.44;4971013;28;20661;-73
2022/08/25 06:57:45;;;;;;;0.00;0.00;;;;;;;19.43;86.18;100770.44;4972998;28;20182;-74
2022/08/25 07:00:11;;;;;;;0.00;0.00;;;;;;;19.53;85.47;100772.66;4974106;28;20282;-73
2022/08/25 07:02:37;;;;;;;0.00;0.00;;;;;;;19.71;84.84;100770.28;4958283;28;20192;-74
2022/08/25 07:05:03;;;;;;;0.23;0.23;;;;;;;19.76;84.34;100778.28;4955922;28;20187;-75
2022/08/25 07:07:29;;;;;;;0.00;0.00;;;;;;;19.82;84.01;100773.25;4989060;28;20190;-74
2022/08/25 07:09:54;;;;;;;0.13;0.13;;;;;;;19.96;84.26;100767.16;4993304;28;20269;-73
2022/08/25 07:12:20;;;;;;;0.00;0.00;;;;;;;20.05;83.89;100759.44;4994430;28;20204;-74
2022/08/25 07:14:45;;;;;;;0.40;0.40;;;;;;;20.14;83.70;100768.31;4993985;28;20810;-73
2022/08/25 07:17:12;;;;;;;0.30;0.30;;;;;;;20.39;84.15;100769.56;4994145;28;20268;-74
2022/08/25 07:19:37;;;;;;;2.33;0.40;;;;;;;20.50;83.64;100767.00;4994123;28;20177;-74
2022/08/25 07:22:02;;;;;;;0.77;0.77;;;;;;;20.66;82.77;100770.44;4974079;28;20211;-74
2022/08/25 07:24:28;;;;;;;0.00;0.00;;;;;;;20.77;82.33;100770.63;4974372;28;20177;-72
2022/08/25 07:26:53;;;;;;;0.00;0.00;;;;;;;20.94;82.31;100775.66;4974732;28;20559;-73
2022/08/25 07:29:22;;;;;;;0.03;0.03;;;;;;;21.01;81.19;100763.84;4974564;28;20186;-72
2022/08/25 07:31:47;;;;;;;0.30;0.20;;;;;;;21.05;81.88;100764.69;4974527;28;20190;-74
2022/08/25 07:36:57;;;;;;;0.00;0.00;;;;;;;21.38;81.53;100769.56;4974601;28;20604;-74
2022/08/25 07:39:24;;;;;;;0.10;0.10;;;;;;;21.51;81.14;100772.91;4974371;28;20643;-74
2022/08/25 07:41:50;;;;;;;0.10;0.10;;;;;;;21.47;80.97;100763.72;4974538;28;20187;-72
2022/08/25 07:44:15;;;;;;;0.00;0.00;;;;;;;21.65;81.93;100775.88;4991649;28;20188;-73
2022/08/25 07:46:40;;;;;;;0.00;0.00;;;;;;;21.85;80.37;100776.53;4993759;28;20321;-72
2022/08/25 07:49:06;;;;;;;0.13;0.13;;;;;;;21.95;80.30;100784.97;4993684;28;20195;-72
2022/08/25 07:51:32;;;;;;;0.47;0.47;;;;;;;22.11;80.18;100787.56;4993626;28;20246;-72
2022/08/25 07:53:57;;;;;;;0.30;0.30;;;;;;;22.18;79.76;100792.41;4993127;28;20187;-72
2022/08/25 07:56:23;;;;;;;0.00;0.00;;;;;;;22.22;80.18;100790.47;4993583;28;20210;-72
2022/08/25 07:58:48;;;;;;;0.57;0.57;;;;;;;22.42;80.12;100782.69;4993652;28;20181;-73
2022/08/25 08:01:15;;;;;;;0.00;0.00;;;;;;;22.47;79.17;100783.16;4993575;28;20174;-72
2022/08/25 08:03:41;;;;;;;0.17;0.17;;;;;;;22.55;78.55;100786.78;4993376;28;20179;-72
2022/08/25 08:06:08;;;;;;;0.30;0.30;;;;;;;22.62;78.96;100780.50;4993009;28;20272;-72
2022/08/25 08:08:36;;;;;;;0.03;0.03;;;;;;;22.79;78.82;100782.63;4993269;28;20199;-72
2022/08/25 08:11:02;;;;;;;4.67;1.97;;;;;;;22.83;78.25;100789.03;4993100;28;20181;-73
2022/08/25 08:13:28;;;;;;;0.63;0.63;;;;;;;22.95;78.70;100780.38;4993202;28;20188;-72
2022/08/25 08:15:53;;;;;;;0.30;0.30;;;;;;;23.04;78.62;100777.25;4993023;28;20205;-72
2022/08/25 08:18:18;;;;;;;5.10;3.27;;;;;;;23.23;78.63;100776.97;4993259;28;20264;-73
2022/08/25 08:20:47;;;;;;;1.07;0.97;;;;;;;23.25;77.84;100776.59;4993185;28;20184;-73
2022/08/25 08:23:13;;;;;;;0.27;0.27;;;;;;;23.33;78.25;100781.03;4991943;28;20240;-73
2022/08/25 08:25:38;;;;;;;0.80;0.80;;;;;;;23.34;78.33;100768.69;4993072;28;20252;-73
2022/08/25 08:28:04;;;;;;;0.10;0.10;;;;;;;23.57;77.94;100774.78;4992869;28;20664;-74
2022/08/25 08:30:29;;;;;;;0.20;0.20;;;;;;;23.55;76.99;100777.13;4993049;28;20609;-73
2022/08/25 08:32:55;;;;;;;2.03;1.50;;;;;;;23.58;77.39;100768.03;4992918;28;20165;-72
2022/08/25 08:35:21;;;;;;;3.63;3.47;;;;;;;23.72;76.57;100768.09;4992636;28;20169;-73
2022/08/25 08:37:46;;;;;;;1.57;1.47;;;;;;;23.93;76.20;100767.34;4992803;28;20177;-72
2022/08/25 08:40:14;;;;;;;2.93;1.03;;;;;;;23.94;76.26;100763.38;4992816;28;20247;-72
2022/08/25 08:42:44;;;;;;;0.37;0.37;;;;;;;23.91;76.00;100766.97;4992585;28;20185;-73
2022/08/25 08:45:27;;;;;;;0.70;0.70;;;;;;;24.04;75.70;100761.81;4992357;28;20601;-73
2022/08/25 08:48:04;;;;;;;0.20;0.20;;;;;;;24.18;75.62;100766.63;4992353;28;20252;-72
2022/08/25 08:50:56;;;;;;;1.70;0.77;;;;;;;24.21;76.15;100749.88;4992633;28;20173;-73
2022/08/25 08:53:30;;;;;;;1.70;1.17;;;;;;;24.28;75.50;100746.28;4992611;28;20168;-73
2022/08/25 08:55:59;;;;;;;7.83;1.53;;;;;;;24.42;75.16;100745.50;4992357;28;20828;-73
2022/08/25 08:58:38;;;;;;;0.93;0.77;;;;;;;24.40;74.37;100745.13;4992436;28;20179;-73
2022/08/25 09:01:04;;;;;;;0.60;0.60;;;;;;;24.54;74.89;100742.34;4992585;28;20264;-73
2022/08/25 09:03:53;;;;;;;2.17;2.00;;;;;;;24.63;73.57;100732.34;4992059;28;20169;-73
2022/08/25 09:06:29;;;;;;;0.00;0.00;;;;;;;24.61;73.80;100736.75;4991927;28;20176;-72
2022/08/25 09:08:57;;;;;;;0.43;0.43;;;;;;;24.81;73.51;100725.94;4991914;28;20180;-73
2022/08/25 09:11:49;;;;;;;1.77;1.67;;;;;;;24.93;73.18;100722.72;4991686;28;20224;-73
2022/08/25 09:14:51;;;;;;;0.30;0.30;;;;;;;24.99;73.12;100731.50;4991555;28;20193;-73
2022/08/25 09:17:41;;;;;;;2.50;2.40;;;;;;;24.99;72.05;100718.31;4991782;28;20205;-73
2022/08/25 09:20:12;;;;;;;0.93;0.60;;;;;;;25.06;71.93;100711.94;4971311;28;20197;-72
2022/08/25 09:22:52;;;;;;;0.33;0.33;;;;;;;24.97;72.03;100715.13;4968819;28;20188;-73
2022/08/25 09:25:18;;;;;;;4.53;0.90;;;;;;;25.09;71.67;100719.53;4968580;28;20280;-73
2022/08/25 09:28:05;;;;;;;4.13;2.93;;;;;;;25.10;70.36;100715.53;4971934;28;20675;-73
2022/08/25 09:30:54;;;;;;;0.20;0.20;;;;;;;25.29;69.54;100715.06;4965173;28;20185;-73
2022/08/25 09:33:23;;;;;;;1.60;1.50;;;;;;;25.51;69.21;100721.38;4972311;28;20610;-73
2022/08/25 09:35:50;;;;;;;0.63;0.63;;;;;;;25.53;68.03;100713.38;4971483;28;20237;-72
2022/08/25 09:38:16;;;;;;;1.03;0.80;;;;;;;25.42;67.92;100721.00;4971774;28;20186;-73
2022/08/25 09:40:46;;;;;;;0.60;0.60;;;;;;;25.39;67.96;100714.22;4971903;28;20181;-73
2022/08/25 09:43:22;;;;;;;1.20;1.20;;;;;;;25.55;67.34;100708.16;4971886;28;20178;-72
2022/08/25 09:45:56;;;;;;;3.47;1.50;;;;;;;25.56;67.13;100701.34;4971671;28;20177;-73
2022/08/25 09:48:26;;;;;;;0.60;0.60;;;;;;;25.54;67.71;100705.78;4971728;28;20621;-73
2022/08/25 09:50:57;;;;;;;0.20;0.20;;;;;;;25.91;67.09;100700.41;4971615;28;20178;-72
2022/08/25 09:53:23;;;;;;;1.27;1.17;;;;;;;25.85;66.75;100695.63;4952652;28;20257;-72
2022/08/25 09:55:59;;;;;;;2.90;2.70;;;;;;;25.68;66.30;100686.09;4952087;28;20214;-72
2022/08/25 09:58:24;;;;;;;1.10;1.10;;;;;;;25.71;66.53;100685.31;4952559;28;20207;-73
2022/08/25 10:01:12;;;;;;;1.80;1.70;;;;;;;25.56;66.82;100687.38;4952361;28;20179;-73
2022/08/25 10:03:52;;;;;;;0.30;0.30;;;;;;;25.56;67.87;100686.56;4952154;28;20177;-73
2022/08/25 10:06:18;;;;;;;3.00;2.27;;;;;;;25.65;67.26;100682.13;4954554;28;20182;-73
2022/08/25 10:08:43;;;;;;;0.30;0.30;;;;;;;25.80;67.21;100682.88;4972189;28;20237;-73
2022/08/25 10:11:13;;;;;;;0.80;0.80;;;;;;;25.90;66.15;100675.63;4969837;28;20587;-73
2022/08/25 10:13:42;;;;;;;1.30;1.20;;;;;;;26.10;65.64;100685.84;4971312;28;20201;-72
2022/08/25 10:16:19;;;;;;;0.50;0.50;;;;;;;26.29;65.61;100670.50;4968164;28;20678;-73
2022/08/25 10:18:44;;;;;;;1.33;1.23;;;;;;;26.26;65.58;100667.72;4971455;28;20181;-73
2022/08/25 10:21:16;;;;;;;2.10;2.00;;;;;;;25.99;65.60;100659.94;4971419;28;20539;-72
2022/08/25 10:23:45;;;;;;;2.43;2.23;;;;;;;25.78;66.46;100662.88;4963945;28;20189;-72
2022/08/25 10:26:21;;;;;;;1.93;1.83;;;;;;;25.93;65.73;100655.97;4969629;28;20548;-72
2022/08/25 10:29:12;;;;;;;0.30;0.30;;;;;;;26.00;66.05;100647.53;4971394;28;20182;-72
2022/08/25 10:31:43;;;;;;;0.30;0.30;;;;;;;26.04;65.43;100644.72;4971112;28;20187;-72
2022/08/25 10:34:33;;;;;;;0.83;0.83;;;;;;;26.29;64.91;100638.88;4974753;28;20184;-72
2022/08/25 10:37:18;;;;;;;0.57;0.57;;;;;;;26.49;64.14;100637.13;4975166;28;20213;-72
2022/08/25 10:40:12;;;;;;;6.10;1.80;;;;;;;26.61;62.99;100636.59;4974863;28;20186;-72
2022/08/25 10:43:05;;;;;;;4.07;2.00;;;;;;;26.21;63.81;100626.94;4975047;28;20553;-71
2022/08/25 10:45:42;;;;;;;0.80;0.80;;;;;;;26.53;62.63;100618.25;4974439;28;20638;-72
2022/08/25 10:48:37;;;;;;;1.17;1.10;;;;;;;26.72;62.55;100610.44;4973760;28;20554;-72
2022/08/25 10:51:16;;;;;;;9.27;2.80;;;;;;;27.15;62.17;100610.75;4974887;28;20519;-72
2022/08/25 10:54:08;;;;;;;0.53;0.53;;;;;;;27.33;60.42;100602.09;4974733;28;20570;-72
2022/08/25 10:56:42;;;;;;;0.27;0.27;;;;;;;27.51;60.28;100602.66;4968488;28;20232;-73
2022/08/25 10:59:21;;;;;;;0.33;0.33;;;;;;;27.55;59.81;100597.78;4974814;28;20210;-72
2022/08/25 11:01:55;;;;;;;0.60;0.60;;;;;;;27.42;59.53;100603.16;4974600;28;20178;-72
2022/08/25 11:04:30;;;;;;;3.13;2.07;;;;;;;27.58;60.19;100594.91;4974231;28;20558;-72
2022/08/25 11:06:56;;;;;;;1.03;1.03;;;;;;;27.44;59.83;100585.91;4974368;28;20664;-72
2022/08/25 11:09:31;;;;;;;0.63;0.63;;;;;;;27.54;60.53;100580.13;4973004;28;20187;-72
2022/08/25 11:12:01;;;;;;;1.00;0.73;;;;;;;27.34;60.03;100567.19;4974195;28;20660;-72
2022/08/25 11:14:35;;;;;;;0.70;0.70;;;;;;;27.11;61.51;100576.34;4974266;28;20653;-72
2022/08/25 11:17:08;;;;;;;8.60;3.40;;;;;;;26.88;61.60;100565.78;4974254;28;20221;-73
2022/08/25 11:19:39;;;;;;;1.80;1.70;;;;;;;26.80;62.43;100561.50;4974260;28;20181;-73
2022/08/25 11:22:16;;;;;;;1.70;1.60;;;;;;;26.91;61.78;100564.97;4974549;28;20262;-72
2022/08/25 11:24:53;;;;;;;1.23;1.23;;;;;;;27.12;61.41;100556.28;4973982;28;20297;-72
2022/08/25 11:27:45;;;;;;;0.83;0.77;;;;;;;26.84;61.80;100557.44;4974268;28;20182;-72
2022/08/25 11:30:14;;;;;;;4.40;3.70;;;;;;;26.93;60.71;100548.53;4973679;28;20190;-72
2022/08/25 11:32:45;;;;;;;0.73;0.70;;;;;;;26.96;60.91;100550.47;4974263;28;20649;-73
2022/08/25 11:35:12;;;;;;;0.90;0.90;;;;;;;27.17;61.15;100543.78;4973162;28;20443;-73
2022/08/25 11:38:18;;;;;;;3.03;2.83;;;;;;;26.58;62.15;100533.72;4970599;28;20344;-73
2022/08/25 11:40:58;;;;;;;1.10;1.10;;;;;;;26.63;62.15;100536.06;4971839;28;20181;-72
2022/08/25 11:43:52;;;;;;;4.57;1.67;;;;;;;26.65;61.74;100538.47;4964491;28;20237;-73